Time;durP1;ratioP1;P1;durP2;ratioP2;P2;SDS_P1;SDS_P2;PMS_P1;PMS_P2;Temp;Humidity;BMP_temperature;BMP_pressure;BME280_temperature;BME280_humidity;BME280_pressure;Samples;Min_cycle;Max_cycle;Signal;HPM_P1;HPM_P2
2021/01/21 00:01:13;;;;;;;8.82;2.00;;;9.40;99.90;;;;;;6240044;23;20032;-89
2021/01/21 00:03:39;;;;;;;0.20;0.20;;;9.50;99.90;;;;;;6241931;22;20004;-90
2021/01/21 00:06:05;;;;;;;0.35;0.35;;;9.60;99.90;;;;;;6242026;23;20004;-90
2021/01/21 00:08:30;;;;;;;0.10;0.10;;;9.60;99.90;;;;;;6241941;23;20385;-89
2021/01/21 00:10:56;;;;;;;1.05;1.00;;;9.60;99.90;;;;;;6241172;23;20000;-89
2021/01/21 00:13:22;;;;;;;0.10;0.10;;;9.50;99.90;;;;;;6242334;22;20000;-89
2021/01/21 00:15:48;;;;;;;2.80;1.08;;;9.60;99.90;;;;;;6240185;23;20490;-89
2021/01/21 00:18:13;;;;;;;1.27;1.00;;;9.60;99.90;;;;;;6242153;22;20062;-89
2021/01/21 00:20:39;;;;;;;0.32;0.32;;;9.60;99.90;;;;;;6240352;23;20036;-89
2021/01/21 00:23:05;;;;;;;0.57;0.57;;;9.70;99.90;;;;;;6241732;22;20027;-89
2021/01/21 00:25:30;;;;;;;0.43;0.20;;;9.80;99.90;;;;;;6241721;23;20007;-90
2021/01/21 00:27:56;;;;;;;0.55;0.55;;;9.60;1.00;;;;;;6242091;22;20342;-89
2021/01/21 00:30:22;;;;;;;1.30;1.20;;;9.50;99.90;;;;;;6240313;23;20004;-89
2021/01/21 00:32:48;;;;;;;0.30;0.30;;;9.50;99.90;;;;;;6241855;22;20058;-88
2021/01/21 00:35:15;;;;;;;0.00;0.00;;;9.50;99.90;;;;;;6242084;23;20068;-89
2021/01/21 00:37:41;;;;;;;0.10;0.10;;;9.60;99.90;;;;;;6242214;22;20004;-89
2021/01/21 00:40:07;;;;;;;0.13;0.13;;;9.60;99.90;;;;;;6241804;22;20454;-89
2021/01/21 00:42:33;;;;;;;0.30;0.30;;;9.70;99.90;;;;;;6242529;22;20195;-89
2021/01/21 00:44:59;;;;;;;0.10;0.10;;;9.80;99.90;;;;;;6242054;22;20008;-89
2021/01/21 00:47:25;;;;;;;0.10;0.10;;;9.90;99.90;;;;;;6241982;22;20000;-89
2021/01/21 00:49:51;;;;;;;0.65;0.60;;;10.00;16.70;;;;;;6239723;23;20008;-88
2021/01/21 00:52:17;;;;;;;1.13;1.13;;;9.90;1.00;;;;;;6241125;22;20004;-88
2021/01/21 00:54:43;;;;;;;0.15;0.15;;;9.80;1.00;;;;;;6241623;22;20409;-88
2021/01/21 00:57:09;;;;;;;0.45;0.45;;;9.70;1.20;;;;;;6240486;22;20012;-88
2021/01/21 00:59:34;;;;;;;0.65;0.65;;;9.60;97.90;;;;;;6240422;23;20011;-88
2021/01/21 01:02:00;;;;;;;0.10;0.10;;;9.50;1.00;;;;;;6239596;23;20008;-88
2021/01/21 01:04:26;;;;;;;0.73;0.57;;;9.40;33.20;;;;;;6239137;23;20004;-88
2021/01/21 01:06:52;;;;;;;0.28;0.28;;;9.40;99.90;;;;;;6239337;23;20019;-88
2021/01/21 01:09:18;;;;;;;0.10;0.10;;;9.60;2.30;;;;;;6240811;22;20067;-88
2021/01/21 01:11:44;;;;;;;11.60;1.13;;;9.50;99.90;;;;;;6240960;23;20000;-88
2021/01/21 01:14:10;;;;;;;0.73;0.73;;;9.60;99.90;;;;;;6241131;22;20231;-87
2021/01/21 01:16:36;;;;;;;0.15;0.15;;;9.70;99.90;;;;;;6241163;23;20042;-87
2021/01/21 01:19:01;;;;;;;0.20;0.20;;;9.70;99.90;;;;;;6241260;22;20139;-88
2021/01/21 01:21:27;;;;;;;0.10;0.10;;;9.70;99.90;;;;;;6239089;23;20012;-87
2021/01/21 01:23:53;;;;;;;1.20;1.08;;;9.60;99.90;;;;;;6239226;23;20027;-87
2021/01/21 01:26:22;;;;;;;1.02;0.93;;;9.60;99.90;;;;;;6239604;23;20008;-87
2021/01/21 01:28:49;;;;;;;0.57;0.57;;;9.70;99.90;;;;;;6240827;22;20035;-88
2021/01/21 01:31:15;;;;;;;0.50;0.50;;;9.60;99.90;;;;;;6241046;22;20000;-88
2021/01/21 01:33:41;;;;;;;0.40;0.40;;;9.70;99.90;;;;;;6240704;23;20072;-88
2021/01/21 01:36:07;;;;;;;0.22;0.22;;;9.80;99.90;;;;;;6241113;22;20421;-88
2021/01/21 01:38:33;;;;;;;0.22;0.22;;;9.90;99.90;;;;;;6240408;23;20132;-88
2021/01/21 01:40:59;;;;;;;1.30;1.23;;;9.90;99.90;;;;;;6240679;22;20044;-88
2021/01/21 01:43:25;;;;;;;0.20;0.20;;;9.90;99.90;;;;;;6239505;23;20016;-88
2021/01/21 01:45:51;;;;;;;0.10;0.10;;;9.90;99.90;;;;;;6240863;22;20008;-87
2021/01/21 01:48:18;;;;;;;0.17;0.17;;;9.90;99.90;;;;;;6240717;22;20075;-88
2021/01/21 01:50:45;;;;;;;0.10;0.10;;;9.80;99.90;;;;;;6240575;22;20000;-88
2021/01/21 01:53:11;;;;;;;0.10;0.10;;;9.80;99.90;;;;;;6240801;22;20006;-87
2021/01/21 01:55:40;;;;;;;0.85;0.85;;;9.80;99.90;;;;;;6240586;22;20032;-87
2021/01/21 01:58:08;;;;;;;0.17;0.17;;;9.70;99.90;;;;;;6239190;23;20503;-89
2021/01/21 02:00:34;;;;;;;0.17;0.17;;;9.70;99.90;;;;;;6240444;22;20107;-88
2021/01/21 02:03:01;;;;;;;0.20;0.20;;;9.70;99.90;;;;;;6240283;23;20514;-89
2021/01/21 02:05:27;;;;;;;0.43;0.32;;;9.70;99.90;;;;;;6239898;22;20007;-88
2021/01/21 02:07:53;;;;;;;0.68;0.68;;;9.80;99.90;;;;;;6239414;22;20008;-89
2021/01/21 02:10:20;;;;;;;0.10;0.10;;;9.60;99.90;;;;;;6240574;23;20030;-88
2021/01/21 02:13:23;;;;;;;0.35;0.35;;;9.60;99.90;;;;;;6240857;22;20127;-88
2021/01/21 02:16:44;;;;;;;0.13;0.13;;;9.60;99.90;;;;;;6240280;23;19999;-88
2021/01/21 02:19:43;;;;;;;0.10;0.10;;;9.60;99.90;;;;;;6117827;23;20089;-88
2021/01/21 02:22:30;;;;;;;0.30;0.30;;;9.60;99.90;;;;;;6093706;23;20009;-88
2021/01/21 02:25:08;;;;;;;0.80;0.77;;;9.60;99.90;;;;;;6117447;23;20018;-88
2021/01/21 02:27:46;;;;;;;0.55;0.40;;;9.50;99.90;;;;;;6093157;23;20013;-88
2021/01/21 02:30:30;;;;;;;0.52;0.50;;;9.40;99.90;;;;;;6093198;23;20006;-87
2021/01/21 02:33:18;;;;;;;0.75;0.75;;;9.30;99.90;;;;;;6092688;23;20006;-87
2021/01/21 02:35:49;;;;;;;0.75;0.47;;;9.30;1.00;;;;;;6117863;23;20383;-87
2021/01/21 02:38:19;;;;;;;1.23;1.13;;;9.30;1.00;;;;;;6093040;23;20076;-87
2021/01/21 02:40:48;;;;;;;0.10;0.10;;;9.20;99.90;;;;;;6118289;23;20061;-87
2021/01/21 02:43:14;;;;;;;0.10;0.10;;;9.20;99.90;;;;;;6117420;23;20014;-87
2021/01/21 02:45:40;;;;;;;0.10;0.10;;;9.30;99.90;;;;;;6117322;23;20010;-87
2021/01/21 02:48:07;;;;;;;0.10;0.10;;;9.40;99.90;;;;;;6092234;23;20025;-87
2021/01/21 02:50:34;;;;;;;0.25;0.25;;;9.40;99.90;;;;;;6117892;23;20467;-87
2021/01/21 02:53:01;;;;;;;0.15;0.15;;;9.30;99.90;;;;;;6142468;23;20032;-87
2021/01/21 02:56:00;;;;;;;0.43;0.43;;;9.30;99.90;;;;;;6176708;23;20064;-87
2021/01/21 02:58:40;;;;;;;0.10;0.10;;;9.20;99.90;;;;;;6183942;23;20008;-87
2021/01/21 03:01:07;;;;;;;0.10;0.10;;;9.30;99.90;;;;;;6240315;22;20020;-87
2021/01/21 03:03:33;;;;;;;0.20;0.20;;;9.20;99.90;;;;;;6239996;22;20011;-87
2021/01/21 03:06:02;;;;;;;0.10;0.10;;;9.20;99.90;;;;;;6240221;22;20091;-88
2021/01/21 03:08:29;;;;;;;0.57;0.57;;;9.20;99.90;;;;;;6239626;22;20008;-88
2021/01/21 03:11:11;;;;;;;0.13;0.13;;;9.20;99.90;;;;;;6240483;22;20004;-88
2021/01/21 03:13:44;;;;;;;0.68;0.68;;;9.20;99.90;;;;;;6240235;22;20349;-88
2021/01/21 03:16:11;;;;;;;0.80;0.57;;;9.00;99.90;;;;;;6240575;22;20071;-88
2021/01/21 03:18:38;;;;;;;0.08;0.08;;;9.00;99.90;;;;;;6239238;22;20015;-89
2021/01/21 03:21:04;;;;;;;0.13;0.13;;;9.00;99.90;;;;;;6240611;22;20008;-88
2021/01/21 03:23:30;;;;;;;0.25;0.17;;;9.00;99.90;;;;;;6240011;22;20024;-89
2021/01/21 03:25:57;;;;;;;0.30;0.30;;;8.90;99.90;;;;;;6238430;23;20015;-89
2021/01/21 03:28:23;;;;;;;0.15;0.15;;;9.00;99.90;;;;;;6239881;22;20450;-88
2021/01/21 03:30:48;;;;;;;0.47;0.47;;;8.90;99.90;;;;;;6240766;22;20012;-89
2021/01/21 03:33:14;;;;;;;0.38;0.38;;;9.00;99.90;;;;;;6237872;23;20356;-88
2021/01/21 03:35:40;;;;;;;0.25;0.25;;;9.00;99.90;;;;;;6239861;23;20008;-89
2021/01/21 03:38:05;;;;;;;0.30;0.30;;;9.00;99.90;;;;;;6243124;23;20008;-88
2021/01/21 03:40:31;;;;;;;0.10;0.10;;;9.00;99.90;;;;;;6242563;23;20039;-88
2021/01/21 03:42:57;;;;;;;0.10;0.10;;;9.00;99.90;;;;;;6241046;23;20004;-88
2021/01/21 03:45:23;;;;;;;2.17;1.48;;;9.00;99.90;;;;;;6242225;23;20062;-88
2021/01/21 03:47:49;;;;;;;0.38;0.38;;;9.00;99.90;;;;;;6240508;23;20008;-88
2021/01/21 03:50:15;;;;;;;0.70;0.65;;;9.00;99.90;;;;;;6242091;23;20003;-88
2021/01/21 03:52:41;;;;;;;0.10;0.10;;;8.90;99.90;;;;;;6242346;23;20115;-87
2021/01/21 03:55:07;;;;;;;0.25;0.25;;;9.00;99.90;;;;;;6241961;22;20032;-87
2021/01/21 03:57:33;;;;;;;0.10;0.10;;;8.90;86.80;;;;;;6242389;23;20057;-88
2021/01/21 03:59:58;;;;;;;0.22;0.22;;;9.00;1.00;;;;;;6242262;22;20026;-87
2021/01/21 04:02:24;;;;;;;0.20;0.20;;;9.00;1.00;;;;;;6241982;23;20078;-87
2021/01/21 04:04:50;;;;;;;0.22;0.22;;;9.00;1.00;;;;;;6241432;23;20453;-88
2021/01/21 04:07:15;;;;;;;0.38;0.38;;;9.00;99.90;;;;;;6240650;23;20008;-88
2021/01/21 04:09:41;;;;;;;0.60;0.52;;;8.80;99.90;;;;;;6242726;22;20071;-88
2021/01/21 04:12:07;;;;;;;0.10;0.10;;;8.90;99.90;;;;;;6242046;22;20007;-88
2021/01/21 04:14:33;;;;;;;0.35;0.35;;;9.00;99.90;;;;;;6242641;22;20097;-86
2021/01/21 04:16:58;;;;;;;1.45;1.17;;;8.90;99.90;;;;;;6242237;23;20450;-86
2021/01/21 04:19:24;;;;;;;0.30;0.30;;;9.00;99.90;;;;;;6240890;23;20003;-88
2021/01/21 04:21:51;;;;;;;0.20;0.20;;;9.00;99.90;;;;;;6242841;23;20073;-88
2021/01/21 04:24:16;;;;;;;0.57;0.57;;;9.00;99.90;;;;;;6240608;23;20020;-88
2021/01/21 04:26:42;;;;;;;0.10;0.10;;;8.90;99.90;;;;;;6241028;23;20100;-88
2021/01/21 04:29:08;;;;;;;0.30;0.30;;;8.80;99.90;;;;;;6242320;22;20004;-88
2021/01/21 04:31:34;;;;;;;0.25;0.25;;;8.90;99.90;;;;;;6240963;23;20612;-88
2021/01/21 04:33:59;;;;;;;0.22;0.22;;;9.00;99.90;;;;;;6242469;22;20430;-87
2021/01/21 04:36:25;;;;;;;0.15;0.15;;;9.00;99.90;;;;;;6240776;23;20473;-88
2021/01/21 04:38:51;;;;;;;0.30;0.30;;;9.00;99.90;;;;;;6243100;23;20425;-87
2021/01/21 04:41:17;;;;;;;0.10;0.10;;;9.00;99.90;;;;;;6240736;23;20400;-88
2021/01/21 04:43:42;;;;;;;0.00;0.00;;;9.00;99.90;;;;;;6242630;22;20389;-88
2021/01/21 04:46:08;;;;;;;0.10;0.10;;;9.00;99.90;;;;;;6241760;22;20007;-87
2021/01/21 04:48:35;;;;;;;0.25;0.25;;;9.00;99.90;;;;;;6240272;23;20012;-87
2021/01/21 04:51:02;;;;;;;0.35;0.35;;;9.00;99.90;;;;;;6242170;22;20000;-87
2021/01/21 04:53:29;;;;;;;0.10;0.10;;;8.90;99.90;;;;;;6241898;22;20004;-87
2021/01/21 04:56:05;;;;;;;0.05;0.05;;;9.00;99.90;;;;;;6240433;23;20011;-87
2021/01/21 04:58:41;;;;;;;0.40;0.40;;;8.90;99.90;;;;;;6241861;22;20036;-87
2021/01/21 05:01:08;;;;;;;0.30;0.30;;;8.80;99.90;;;;;;6239500;23;20445;-87
2021/01/21 05:03:34;;;;;;;0.20;0.20;;;9.00;99.90;;;;;;6242296;22;21035;-88
2021/01/21 05:06:00;;;;;;;1.77;1.38;;;8.70;99.90;;;;;;6242319;23;20011;-87
2021/01/21 05:08:26;;;;;;;0.10;0.10;;;8.80;99.90;;;;;;6242146;22;20004;-88
2021/01/21 05:10:52;;;;;;;0.30;0.30;;;8.60;99.90;;;;;;6242296;23;20035;-88
2021/01/21 05:13:19;;;;;;;0.57;0.57;;;8.30;99.90;;;;;;6241797;22;20441;-87
2021/01/21 05:15:44;;;;;;;0.10;0.10;;;8.60;99.90;;;;;;6242117;22;20050;-87
2021/01/21 05:18:12;;;;;;;0.82;0.82;;;8.40;99.90;;;;;;6239914;23;20099;-88
2021/01/21 05:20:38;;;;;;;0.10;0.10;;;8.60;99.90;;;;;;6239095;23;20090;-87
2021/01/21 05:23:05;;;;;;;0.10;0.10;;;8.60;99.90;;;;;;6241530;22;20093;-86
2021/01/21 05:25:32;;;;;;;0.10;0.10;;;8.50;99.90;;;;;;6241505;22;20242;-86
2021/01/21 05:28:03;;;;;;;5.20;1.65;;;8.70;99.90;;;;;;6239076;23;20062;-87
2021/01/21 05:30:33;;;;;;;1.27;0.70;;;8.70;99.90;;;;;;6238914;23;20019;-87
2021/01/21 05:32:59;;;;;;;0.10;0.10;;;8.90;99.90;;;;;;6241231;22;20004;-87
2021/01/21 05:35:26;;;;;;;0.10;0.10;;;8.90;99.90;;;;;;6241234;22;20442;-87
2021/01/21 05:37:56;;;;;;;52.08;2.08;;;9.00;99.90;;;;;;6241123;22;20470;-88
2021/01/21 05:40:27;;;;;;;0.10;0.10;;;8.90;99.90;;;;;;6239189;23;20038;-88
2021/01/21 05:42:54;;;;;;;0.15;0.15;;;8.90;99.90;;;;;;6239220;23;20008;-87
2021/01/21 05:45:21;;;;;;;0.32;0.32;;;8.90;99.90;;;;;;6238916;23;20085;-89
2021/01/21 05:47:54;;;;;;;0.10;0.10;;;8.90;99.90;;;;;;6238387;23;20009;-89
2021/01/21 05:50:21;;;;;;;0.17;0.17;;;9.00;99.90;;;;;;6241477;22;20373;-89
2021/01/21 05:52:48;;;;;;;0.10;0.10;;;9.00;99.90;;;;;;6240960;22;20341;-89
2021/01/21 05:55:13;;;;;;;0.10;0.10;;;9.10;99.90;;;;;;6240817;22;20008;-90
2021/01/21 05:57:40;;;;;;;0.10;0.10;;;9.10;99.90;;;;;;6239553;23;20012;-90
2021/01/21 06:00:06;;;;;;;1.30;1.10;;;9.00;99.90;;;;;;6240811;22;20023;-88
2021/01/21 06:02:33;;;;;;;0.75;0.75;;;9.00;99.90;;;;;;6239344;23;20061;-89
2021/01/21 06:05:03;;;;;;;0.10;0.10;;;9.00;99.90;;;;;;6240634;22;20078;-89
2021/01/21 06:07:33;;;;;;;0.93;0.75;;;9.00;99.90;;;;;;6239670;23;20098;-90
2021/01/21 06:09:59;;;;;;;1.92;1.08;;;8.90;99.90;;;;;;6242328;22;20061;-91
2021/01/21 06:12:28;;;;;;;0.10;0.10;;;8.80;99.90;;;;;;6240229;23;20051;-91
2021/01/21 06:15:00;;;;;;;0.30;0.30;;;8.70;99.90;;;;;;6240983;22;20019;-89
2021/01/21 06:17:29;;;;;;;0.20;0.20;;;8.70;99.90;;;;;;6241093;22;20004;-90
2021/01/21 06:19:55;;;;;;;0.10;0.10;;;8.70;99.90;;;;;;6241419;22;20004;-90
2021/01/21 06:22:31;;;;;;;0.10;0.10;;;8.70;99.90;;;;;;6239733;23;20007;-90
2021/01/21 06:25:04;;;;;;;0.10;0.10;;;8.70;99.90;;;;;;6241763;22;20019;-91
2021/01/21 06:27:33;;;;;;;0.28;0.28;;;8.70;99.90;;;;;;6240506;23;20304;-91
2021/01/21 06:30:00;;;;;;;0.90;0.82;;;8.70;99.90;;;;;;6240933;22;20023;-90
2021/01/21 06:32:37;;;;;;;1.35;0.40;;;8.70;99.90;;;;;;6241237;22;20496;-89
2021/01/21 06:35:05;;;;;;;0.32;0.32;;;8.80;99.90;;;;;;6240678;22;20775;-88
2021/01/21 06:37:38;;;;;;;0.10;0.10;;;8.70;99.90;;;;;;6240840;22;20397;-87
2021/01/21 06:40:12;;;;;;;0.15;0.15;;;8.70;99.90;;;;;;6238845;23;20358;-89
2021/01/21 06:42:50;;;;;;;0.15;0.15;;;8.80;99.90;;;;;;6239101;22;20000;-89
2021/01/21 06:45:16;;;;;;;1.35;0.47;;;8.80;99.90;;;;;;6237315;23;20066;-88
2021/01/21 06:47:42;;;;;;;1.10;0.87;;;8.80;99.90;;;;;;6239923;22;20005;-87
2021/01/21 06:50:09;;;;;;;2.72;0.63;;;8.80;99.90;;;;;;6239146;23;20483;-89
2021/01/21 06:52:39;;;;;;;0.10;0.10;;;8.90;99.90;;;;;;6240324;22;20003;-90
2021/01/21 06:55:09;;;;;;;0.10;0.10;;;8.90;99.90;;;;;;6238193;23;20404;-88
2021/01/21 06:57:35;;;;;;;0.32;0.32;;;8.80;99.90;;;;;;6240415;22;20008;-88
2021/01/21 07:00:16;;;;;;;3.00;1.23;;;8.80;99.90;;;;;;6239183;23;20475;-90
2021/01/21 07:02:46;;;;;;;0.15;0.05;;;8.80;99.90;;;;;;6238548;23;20008;-89
2021/01/21 07:05:15;;;;;;;0.13;0.13;;;8.80;99.90;;;;;;6240418;22;20000;-88
2021/01/21 07:07:53;;;;;;;0.10;0.10;;;8.80;99.90;;;;;;6240649;22;20833;-88
2021/01/21 07:10:23;;;;;;;1.17;0.70;;;8.60;99.90;;;;;;6240572;22;20039;-89
2021/01/21 07:12:50;;;;;;;0.50;0.50;;;8.70;99.90;;;;;;6240761;22;20004;-89
2021/01/21 07:15:16;;;;;;;0.35;0.35;;;8.70;99.90;;;;;;6240358;22;20075;-88
2021/01/21 07:17:42;;;;;;;1.73;1.13;;;8.80;99.90;;;;;;6240461;23;20536;-89
2021/01/21 07:20:09;;;;;;;0.10;0.10;;;8.80;99.90;;;;;;6240620;22;20038;-87
2021/01/21 07:22:43;;;;;;;0.93;0.85;;;8.90;99.90;;;;;;6238785;23;20798;-89
2021/01/21 07:25:12;;;;;;;0.20;0.20;;;8.80;99.90;;;;;;6242842;22;20024;-91
2021/01/21 07:27:41;;;;;;;0.10;0.10;;;9.00;99.90;;;;;;6243977;22;20075;-91
2021/01/21 07:30:16;;;;;;;0.45;0.45;;;9.00;99.90;;;;;;6241741;23;20063;-89
2021/01/21 07:32:42;;;;;;;0.52;0.43;;;9.00;99.90;;;;;;6239554;23;20000;-90
2021/01/21 07:35:36;;;;;;;0.80;0.47;;;9.00;99.90;;;;;;6242673;23;20000;-92
2021/01/21 07:38:02;;;;;;;0.75;0.75;;;8.90;99.90;;;;;;6238835;23;20146;-93
2021/01/21 07:40:45;;;;;;;0.10;0.10;;;8.90;99.90;;;;;;6244084;23;20039;-92
2021/01/21 07:43:11;;;;;;;0.63;0.63;;;8.90;99.90;;;;;;6244564;23;20633;-93
2021/01/21 07:45:37;;;;;;;0.10;0.10;;;8.90;99.90;;;;;;6244248;23;20007;-92
2021/01/21 07:48:24;;;;;;;0.25;0.25;;;8.90;99.90;;;;;;6245832;22;20008;-92
2021/01/21 07:50:51;;;;;;;0.00;0.00;;;8.90;99.90;;;;;;6244627;23;20005;-94
2021/01/21 07:53:24;;;;;;;0.20;0.20;;;9.00;99.90;;;;;;6245852;23;20414;-96
2021/01/21 07:55:53;;;;;;;0.00;0.00;;;9.00;99.90;;;;;;6245005;23;20023;-94
2021/01/21 07:58:37;;;;;;;0.73;0.73;;;9.00;99.90;;;;;;6245380;23;20099;-94
2021/01/21 08:01:08;;;;;;;0.20;0.20;;;9.00;99.90;;;;;;6244748;23;20089;-91
2021/01/21 08:03:42;;;;;;;1.48;1.38;;;9.00;99.90;;;;;;6246274;22;20004;-94
2021/01/21 08:06:12;;;;;;;0.10;0.10;;;9.00;99.90;;;;;;6244844;23;20003;-93
2021/01/21 08:08:49;;;;;;;0.30;0.30;;;9.00;99.90;;;;;;6244570;23;20004;-93
2021/01/21 08:11:18;;;;;;;;;;;9.00;99.90;;;;;;6245274;23;20004;-94
2021/01/21 08:13:46;;;;;;;0.60;0.30;;;9.00;99.90;;;;;;6245062;23;19904;-93
2021/01/21 08:16:17;;;;;;;0.00;0.00;;;9.00;99.90;;;;;;6244821;23;20001;-93
2021/01/21 08:18:45;;;;;;;0.38;0.38;;;9.00;99.90;;;;;;6245009;23;20042;-93
2021/01/21 08:21:25;;;;;;;0.20;0.20;;;9.00;99.90;;;;;;6244655;23;20380;-93
2021/01/21 08:24:13;;;;;;;0.38;0.38;;;9.10;99.90;;;;;;6245008;23;20506;-93
2021/01/21 08:26:44;;;;;;;0.15;0.15;;;9.20;99.90;;;;;;6245487;23;20059;-92
2021/01/21 08:29:15;;;;;;;0.43;0.43;;;9.30;99.90;;;;;;6245391;23;20011;-92
2021/01/21 08:31:50;;;;;;;5.78;1.05;;;9.40;99.90;;;;;;6245607;22;20442;-91
2021/01/21 08:34:23;;;;;;;0.10;0.10;;;9.40;99.90;;;;;;6243931;23;20442;-92
2021/01/21 08:36:50;;;;;;;0.10;0.10;;;9.50;99.90;;;;;;6244385;23;20001;-92
2021/01/21 08:39:16;;;;;;;0.10;0.10;;;9.60;99.90;;;;;;6244484;23;20004;-91
2021/01/21 08:41:44;;;;;;;0.25;0.25;;;9.70;99.90;;;;;;6244495;23;20004;-91
2021/01/21 08:44:20;;;;;;;0.32;0.32;;;9.70;99.90;;;;;;6245136;23;20014;-93
2021/01/21 08:47:00;;;;;;;0.10;0.10;;;9.70;99.90;;;;;;6246270;23;20008;-92
2021/01/21 08:49:29;;;;;;;0.90;0.68;;;9.60;99.90;;;;;;6246199;23;20400;-92
2021/01/21 08:52:09;;;;;;;0.85;0.85;;;9.60;99.90;;;;;;6246118;23;20384;-93
2021/01/21 08:54:34;;;;;;;0.43;0.43;;;9.60;99.90;;;;;;6245961;23;20008;-93
2021/01/21 08:57:11;;;;;;;1.67;1.17;;;9.90;99.90;;;;;;6245389;23;20057;-92
2021/01/21 08:59:41;;;;;;;0.10;0.10;;;10.00;99.90;;;;;;6245945;23;20446;-93
2021/01/21 09:02:09;;;;;;;0.20;0.20;;;10.40;99.90;;;;;;6246256;23;20000;-94
2021/01/21 09:04:36;;;;;;;1.55;0.43;;;10.40;99.90;;;;;;6246161;23;20004;-93
2021/01/21 09:07:04;;;;;;;0.30;0.30;;;10.40;99.90;;;;;;6246365;23;20056;-93
2021/01/21 09:09:40;;;;;;;0.10;0.10;;;10.50;99.90;;;;;;6246393;23;20005;-94
2021/01/21 09:12:16;;;;;;;0.28;0.28;;;10.40;99.90;;;;;;6246327;23;20039;-93
2021/01/21 09:14:43;;;;;;;0.10;0.10;;;10.20;99.90;;;;;;6246260;23;20027;-94
2021/01/21 09:17:12;;;;;;;;;;;10.00;99.90;;;;;;6246532;23;20000;-93
2021/01/21 09:19:40;;;;;;;0.52;0.52;;;10.00;99.90;;;;;;6245932;23;19906;-93
2021/01/21 09:22:12;;;;;;;0.30;0.30;;;10.10;99.90;;;;;;6246228;23;20028;-93
2021/01/21 09:24:55;;;;;;;0.57;0.57;;;10.20;99.90;;;;;;6246031;23;20016;-94
2021/01/21 09:27:25;;;;;;;0.17;0.17;;;10.40;99.90;;;;;;6246127;23;20004;-93
2021/01/21 09:30:00;;;;;;;0.10;0.10;;;10.50;99.90;;;;;;6246152;23;20050;-93
2021/01/21 09:32:34;;;;;;;2.63;0.70;;;10.50;99.90;;;;;;6245478;23;20361;-93
2021/01/21 09:35:15;;;;;;;0.00;0.00;;;10.40;99.90;;;;;;6244805;23;20000;-92
2021/01/21 09:37:46;;;;;;;0.45;0.45;;;10.30;99.90;;;;;;6245474;23;20008;-92
2021/01/21 09:40:17;;;;;;;0.20;0.20;;;10.20;99.90;;;;;;6245994;23;20054;-93
2021/01/21 09:42:43;;;;;;;0.57;0.57;;;10.30;99.90;;;;;;6245358;23;20343;-92
2021/01/21 09:45:10;;;;;;;0.55;0.55;;;10.30;99.90;;;;;;6245812;23;20426;-92
2021/01/21 09:47:36;;;;;;;0.55;0.55;;;10.40;99.90;;;;;;6245688;23;20008;-93
2021/01/21 09:50:03;;;;;;;0.10;0.10;;;10.30;99.90;;;;;;6245774;23;20050;-93
2021/01/21 09:52:29;;;;;;;0.65;0.65;;;10.20;99.90;;;;;;6245668;23;20004;-92
2021/01/21 09:54:55;;;;;;;0.32;0.32;;;10.10;99.90;;;;;;6245689;23;20476;-92
2021/01/21 09:57:21;;;;;;;0.20;0.20;;;10.10;99.90;;;;;;6245765;23;20092;-92
2021/01/21 09:59:46;;;;;;;0.43;0.43;;;10.30;99.90;;;;;;6245324;23;20001;-93
2021/01/21 10:02:12;;;;;;;0.13;0.13;;;10.70;99.90;;;;;;6245737;23;20007;-93
2021/01/21 10:04:41;;;;;;;0.10;0.10;;;11.10;99.90;;;;;;6246091;23;20004;-93
2021/01/21 10:07:08;;;;;;;0.20;0.20;;;11.00;99.90;;;;;;6246001;23;20382;-92
2021/01/21 10:09:35;;;;;;;0.60;0.60;;;10.90;99.90;;;;;;6245659;23;20349;-93
2021/01/21 10:12:22;;;;;;;0.60;0.60;;;11.00;99.90;;;;;;6244871;23;20010;-92
2021/01/21 10:14:48;;;;;;;0.20;0.20;;;10.90;99.90;;;;;;6244286;23;20007;-92
2021/01/21 10:17:14;;;;;;;0.28;0.28;;;10.90;99.90;;;;;;6244850;23;20004;-92
2021/01/21 10:19:40;;;;;;;0.32;0.32;;;11.00;99.90;;;;;;6244896;23;20036;-93
2021/01/21 10:22:06;;;;;;;0.08;0.08;;;10.90;99.90;;;;;;6245074;23;19997;-93
2021/01/21 10:24:32;;;;;;;0.10;0.10;;;10.70;99.90;;;;;;6245247;23;20533;-92
2021/01/21 10:26:58;;;;;;;0.22;0.22;;;10.70;99.90;;;;;;6245285;23;20096;-92
2021/01/21 10:29:24;;;;;;;10.43;1.13;;;10.70;99.90;;;;;;6245668;23;20035;-94
2021/01/21 10:35:28;;;;;;;0.10;0.10;;;11.50;99.90;;;;;;6246648;23;20007;-92
2021/01/21 10:37:54;;;;;;;0.10;0.10;;;13.00;99.90;;;;;;6244906;23;20095;-93
2021/01/21 10:40:20;;;;;;;0.20;0.20;;;13.80;99.90;;;;;;6245002;23;20031;-93
2021/01/21 10:42:45;;;;;;;0.13;0.13;;;14.50;99.90;;;;;;6245546;23;20054;-93
2021/01/21 10:45:11;;;;;;;0.10;0.10;;;14.40;99.90;;;;;;6244703;23;20498;-93
2021/01/21 10:47:37;;;;;;;0.27;0.27;;;13.90;99.90;;;;;;6244982;23;20004;-92
2021/01/21 10:50:03;;;;;;;0.10;0.10;;;13.30;99.90;;;;;;6244883;23;20003;-92
2021/01/21 10:52:29;;;;;;;0.43;0.43;;;13.00;99.90;;;;;;6244842;23;20107;-92
2021/01/21 10:54:55;;;;;;;0.43;0.43;;;12.80;99.90;;;;;;6244605;23;20028;-93
2021/01/21 10:57:21;;;;;;;0.35;0.35;;;12.90;99.90;;;;;;6244748;23;20004;-92
2021/01/21 10:59:47;;;;;;;0.10;0.10;;;12.90;99.90;;;;;;6244039;23;20055;-92
2021/01/21 11:02:12;;;;;;;1.98;0.70;;;12.70;99.90;;;;;;6244496;23;20079;-91
2021/01/21 11:04:38;;;;;;;0.00;0.00;;;12.60;99.90;;;;;;6243598;23;20055;-92
2021/01/21 11:07:04;;;;;;;6.53;0.75;;;12.50;99.90;;;;;;6243978;23;20004;-91
2021/01/21 11:09:35;;;;;;;0.50;0.50;;;12.70;99.90;;;;;;6243886;23;20015;-92
2021/01/21 11:12:05;;;;;;;0.10;0.10;;;12.60;99.90;;;;;;6243480;23;20005;-91
2021/01/21 11:14:32;;;;;;;3.30;0.30;;;12.60;99.90;;;;;;6244560;23;20026;-94
2021/01/21 11:16:57;;;;;;;0.40;0.40;;;12.70;99.90;;;;;;6244907;23;20000;-92
2021/01/21 11:19:23;;;;;;;0.35;0.35;;;12.60;99.90;;;;;;6244675;23;20008;-93
2021/01/21 11:21:52;;;;;;;0.10;0.10;;;12.50;99.90;;;;;;6244666;23;20381;-92
2021/01/21 11:24:18;;;;;;;0.10;0.10;;;12.50;99.90;;;;;;6244035;23;20438;-92
2021/01/21 11:26:44;;;;;;;0.00;0.00;;;12.60;99.90;;;;;;6244380;23;20008;-93
2021/01/21 11:29:10;;;;;;;0.28;0.20;;;12.60;99.90;;;;;;6244434;23;20008;-92
2021/01/21 11:31:36;;;;;;;0.10;0.10;;;12.40;99.90;;;;;;6244215;23;20000;-93
2021/01/21 11:34:01;;;;;;;0.63;0.63;;;12.50;99.90;;;;;;6245815;23;20000;-93
2021/01/21 11:36:27;;;;;;;0.32;0.32;;;12.60;99.90;;;;;;6244425;23;20528;-93
2021/01/21 11:38:53;;;;;;;0.20;0.20;;;12.60;99.90;;;;;;6244698;23;20015;-92
2021/01/21 11:41:19;;;;;;;0.65;0.65;;;12.90;99.90;;;;;;6245170;23;20012;-93
2021/01/21 11:43:44;;;;;;;0.90;0.53;;;12.90;99.90;;;;;;6244684;23;20476;-92
2021/01/21 11:46:10;;;;;;;0.10;0.10;;;13.20;99.90;;;;;;6244287;23;20349;-92
2021/01/21 11:48:36;;;;;;;0.10;0.10;;;13.40;99.90;;;;;;6244627;23;20030;-93
2021/01/21 11:51:02;;;;;;;0.10;0.10;;;13.50;99.90;;;;;;6244722;23;20000;-92
2021/01/21 11:53:28;;;;;;;0.10;0.10;;;13.60;99.90;;;;;;6244427;23;20004;-92
2021/01/21 11:55:54;;;;;;;0.20;0.20;;;13.60;99.90;;;;;;6245578;22;20008;-93
2021/01/21 11:58:19;;;;;;;0.35;0.35;;;13.80;99.90;;;;;;6247315;23;20015;-93
2021/01/21 12:00:45;;;;;;;1.97;0.80;;;13.70;99.90;;;;;;6245931;23;20008;-92
2021/01/21 12:03:11;;;;;;;0.20;0.20;;;14.00;99.90;;;;;;6246851;23;20076;-93
2021/01/21 12:05:37;;;;;;;0.10;0.10;;;14.10;99.90;;;;;;6246974;23;20004;-93
2021/01/21 12:08:03;;;;;;;4.97;0.90;;;13.80;99.90;;;;;;6246715;23;20008;-93
2021/01/21 12:10:30;;;;;;;0.10;0.10;;;13.70;99.90;;;;;;6246681;23;20000;-94
2021/01/21 12:12:55;;;;;;;0.10;0.10;;;13.50;99.90;;;;;;6246202;23;20008;-92
2021/01/21 12:15:21;;;;;;;0.20;0.20;;;13.50;99.90;;;;;;6245800;23;20031;-92
2021/01/21 12:17:47;;;;;;;0.10;0.10;;;13.50;99.90;;;;;;6245659;23;20350;-93
2021/01/21 12:20:13;;;;;;;0.20;0.20;;;13.30;99.90;;;;;;6247402;23;20004;-93
2021/01/21 12:22:41;;;;;;;0.28;0.28;;;13.50;99.90;;;;;;6244906;23;20514;-92
2021/01/21 12:25:07;;;;;;;0.10;0.10;;;13.60;99.90;;;;;;6245462;23;20027;-92
2021/01/21 12:27:33;;;;;;;0.63;0.63;;;13.50;99.90;;;;;;6246373;23;20015;-94
2021/01/21 12:29:59;;;;;;;0.10;0.10;;;13.60;99.90;;;;;;6246743;23;20004;-93
2021/01/21 12:32:24;;;;;;;0.10;0.10;;;13.60;99.90;;;;;;6246258;23;20323;-93
2021/01/21 12:34:50;;;;;;;0.10;0.10;;;13.60;99.90;;;;;;6246055;23;20004;-93
2021/01/21 12:37:16;;;;;;;0.10;0.10;;;13.60;99.90;;;;;;6247686;23;20422;-92
2021/01/21 12:39:42;;;;;;;0.10;0.10;;;13.70;99.90;;;;;;6246497;23;20035;-93
2021/01/21 12:42:08;;;;;;;0.10;0.10;;;13.60;99.90;;;;;;6246688;23;20011;-93
2021/01/21 12:44:34;;;;;;;0.10;0.10;;;13.50;99.90;;;;;;6246640;23;20012;-93
2021/01/21 12:47:00;;;;;;;0.10;0.10;;;13.70;99.90;;;;;;6246486;23;20460;-94
2021/01/21 12:49:25;;;;;;;0.52;0.52;;;13.70;99.90;;;;;;6246327;23;20079;-93
2021/01/21 12:51:52;;;;;;;0.10;0.10;;;13.80;99.90;;;;;;6246513;23;20020;-93
2021/01/21 12:54:17;;;;;;;0.00;0.00;;;13.70;99.90;;;;;;6246571;23;20000;-95
2021/01/21 12:56:43;;;;;;;0.23;0.23;;;13.40;99.90;;;;;;6246660;23;19996;-94
2021/01/21 12:59:09;;;;;;;0.23;0.23;;;13.50;99.90;;;;;;6247764;23;20004;-93
2021/01/21 13:01:37;;;;;;;0.63;0.63;;;13.60;99.90;;;;;;6246291;23;20004;-93
2021/01/21 13:04:03;;;;;;;0.82;0.82;;;13.50;99.90;;;;;;6246371;23;20008;-93
2021/01/21 13:06:29;;;;;;;0.30;0.30;;;13.70;99.90;;;;;;6246449;23;20004;-94